Gere — LG9010 — position and weather

sailwx.info

Track history (hours):
 
Tides and Currents Weather Stations Pressure Air Temp Water Temp Dewpoint Dewpoint Depression Visibility Wind Speed Wind Dir Waves Ship Positions

Gere

Last reported at 2017-Nov-16 09:03 UTC. Time now 2017-Dec-17 15:59 UTC.
Position N 68°56' E 016°42'.
Warning: this ship's position is 31 days out of date.

Length 15 m; draft 2.2 m.

Type: Wing in ground effect craft. MMSI: 257874500.

Date/timePositionNaut miles runAvg speedWind from/ knotsBaromVisibWave heightAir tempDewpointWater temp
2017-Nov-16 09:03N 68°56' E 016°42'0 0.0
2017-Nov-16 09:00N 68°56' E 016°42'0 0.0
2017-Nov-16 08:28N 68°56' E 016°42'0 0.0
2017-Nov-16 07:54N 68°56' E 016°42'0 0.0
2017-Nov-16 07:30N 68°56' E 016°42'0 0.0
2017-Nov-16 07:00N 68°56' E 016°42'0 0.0
2017-Nov-16 06:30N 68°56' E 016°42'0 0.6
2017-Nov-16 06:00N 68°56' E 016°41'1 1.5
2017-Nov-16 05:30N 68°56' E 016°40'0 0.0
2017-Nov-16 05:00N 68°56' E 016°40'1 1.6
2017-Nov-16 04:30N 68°56' E 016°42'0 0.4
2017-Nov-16 04:00N 68°56' E 016°42'0 0.7
2017-Nov-16 03:30N 68°56' E 016°41'1 1.7
2017-Nov-16 02:57N 68°56' E 016°40'0 0.0
2017-Nov-16 02:27N 68°56' E 016°40'0 0.0
2017-Nov-16 01:57N 68°56' E 016°40'0 0.0
2017-Nov-16 01:27N 68°56' E 016°40'1 1.8
2017-Nov-16 01:00N 68°56' E 016°40'1 1.3
2017-Nov-16 00:28N 68°56' E 016°42'0 0.0
2017-Nov-15 23:58N 68°56' E 016°42'0 0.0
2017-Nov-15 23:29N 68°56' E 016°42'0 0.0
2017-Nov-15 22:57N 68°56' E 016°42'0 0.0
2017-Nov-15 22:28N 68°56' E 016°42'0 0.0
2017-Nov-15 21:58N 68°56' E 016°42'0 0.0
2017-Nov-15 21:29N 68°56' E 016°42'1 2.1
2017-Nov-15 20:59N 68°56' E 016°40'0 0.1
2017-Nov-15 20:29N 68°56' E 016°40'0 0.0
2017-Nov-15 19:54N 68°56' E 016°40'0 0.0
2017-Nov-15 19:30N 68°56' E 016°40'0 0.0
2017-Nov-15 19:00N 68°56' E 016°40'0 0.0
2017-Nov-15 18:30N 68°56' E 016°40'0 0.0
2017-Nov-15 18:00N 68°56' E 016°40'0 0.1
2017-Nov-15 17:30N 68°56' E 016°40'2 3.7
2017-Nov-15 17:01N 68°55' E 016°41'1 1.3
2017-Nov-15 16:29N 68°55' E 016°42'0 0.7
2017-Nov-15 15:59N 68°56' E 016°42'0 0.4
2017-Nov-15 15:28N 68°56' E 016°43'1 3.2
2017-Nov-15 15:00N 68°57' E 016°46'4 8.1
2017-Nov-15 14:30N 69°01' E 016°46'3 6.5
2017-Nov-15 13:59N 69°04' E 016°49'2 4.9
2017-Nov-15 13:29N 69°02' E 016°46'5 9.5
2017-Nov-15 13:00N 68°57' E 016°46'2 4.1
2017-Nov-15 12:30N 68°56' E 016°42'0 0.0
2017-Nov-15 12:00N 68°56' E 016°42'0 0.0
2017-Nov-15 11:30N 68°56' E 016°42'0 0.1
2017-Nov-15 10:59N 68°56' E 016°42'0 0.0
2017-Nov-15 10:30N 68°56' E 016°42'0 0.0
2017-Nov-15 10:00N 68°56' E 016°42'0 0.0
2017-Nov-15 09:30N 68°56' E 016°42'0 0.0
2017-Nov-15 08:59N 68°56' E 016°42'0 0.0
2017-Nov-15 08:30N 68°56' E 016°42'0 0.1
2017-Nov-15 07:53N 68°56' E 016°42'0 0.0
2017-Nov-15 07:20N 68°56' E 016°42'0 0.1
2017-Nov-15 06:59N 68°56' E 016°42'0 0.0
2017-Nov-15 06:29N 68°56' E 016°42'0 0.1
2017-Nov-15 05:59N 68°56' E 016°42'0 0.0
2017-Nov-15 05:29N 68°56' E 016°42'0 0.0
2017-Nov-15 04:59N 68°56' E 016°42'0 0.0
2017-Nov-15 04:29N 68°56' E 016°42'1 2.3
2017-Nov-15 04:00N 68°56' E 016°40'0 0.0
2017-Nov-15 03:28N 68°56' E 016°40'0 0.0
2017-Nov-15 02:58N 68°56' E 016°40'0 0.0
2017-Nov-15 02:30N 68°56' E 016°40'0 0.0
2017-Nov-15 01:58N 68°56' E 016°40'0 0.0
2017-Nov-15 01:30N 68°56' E 016°40'0 0.0
2017-Nov-15 00:59N 68°56' E 016°40'0 0.0
2017-Nov-15 00:29N 68°56' E 016°40'0 0.0
2017-Nov-14 23:59N 68°56' E 016°40'3 6.3
2017-Nov-14 23:30N 68°59' E 016°37'2 3.5
2017-Nov-14 23:00N 68°60' E 016°32'0 0.0
2017-Nov-14 22:30N 68°60' E 016°32'0 0.0
2017-Nov-14 22:00N 68°60' E 016°32'0 0.0
2017-Nov-14 21:30N 68°60' E 016°32'0 0.2
2017-Nov-14 21:00N 69°00' E 016°32'4 7.7
2017-Nov-14 20:30N 68°57' E 016°38'2 4.9
2017-Nov-14 20:00N 68°55' E 016°41'2 3.3
2017-Nov-14 19:28N 68°56' E 016°40'0 0.0
2017-Nov-14 18:58N 68°56' E 016°40'0 0.0
2017-Nov-14 18:30N 68°56' E 016°40'0 0.0
2017-Nov-14 18:00N 68°56' E 016°40'2 3.7
2017-Nov-14 17:30N 68°55' E 016°41'0 0.1
2017-Nov-14 16:58N 68°55' E 016°41'1 2.2
2017-Nov-14 16:30N 68°56' E 016°42'0 0.0
2017-Nov-14 16:00N 68°56' E 016°42'0 0.0
2017-Nov-14 15:30N 68°56' E 016°42'0 0.0
2017-Nov-14 15:00N 68°56' E 016°42'0 0.0
2017-Nov-14 14:30N 68°56' E 016°42'0 0.0
2017-Nov-14 14:00N 68°56' E 016°42'0 0.0
2017-Nov-14 13:30N 68°56' E 016°42'0 0.0
2017-Nov-14 13:00N 68°56' E 016°42'0 0.0
2017-Nov-14 12:30N 68°56' E 016°42'0 0.0
2017-Nov-14 11:58N 68°56' E 016°42'0 0.0
2017-Nov-14 11:28N 68°56' E 016°42'0 0.0
2017-Nov-14 10:58N 68°56' E 016°42'0 0.0
2017-Nov-14 10:28N 68°56' E 016°42'0 0.0
2017-Nov-14 09:58N 68°56' E 016°42'0 0.0
2017-Nov-14 09:30N 68°56' E 016°42'0 0.0
2017-Nov-14 08:57N 68°56' E 016°42'0 0.0
2017-Nov-14 08:29N 68°56' E 016°42'0 0.0
2017-Nov-14 07:58N 68°56' E 016°42'0 0.0
2017-Nov-14 07:28N 68°56' E 016°42'0 0.0
2017-Nov-14 06:58N 68°56' E 016°42'0 0.0
2017-Nov-14 06:27N 68°56' E 016°42'1 2.1
2017-Nov-14 05:57N 68°56' E 016°40'0 0.0
2017-Nov-14 05:29N 68°56' E 016°40'0 0.1
2017-Nov-14 04:59N 68°56' E 016°40'1 1.2
2017-Nov-14 04:30N 68°56' E 016°40'1 1.7
2017-Nov-14 03:59N 68°56' E 016°42'0 0.0
2017-Nov-14 03:29N 68°56' E 016°42'0 0.0
2017-Nov-14 02:59N 68°56' E 016°42'0 0.9
2017-Nov-14 02:28N 68°56' E 016°43'0 0.0
2017-Nov-14 01:59N 68°56' E 016°43'0 0.0
2017-Nov-14 01:30N 68°56' E 016°43'0 0.0
2017-Nov-14 01:00N 68°56' E 016°43'0 0.0
2017-Nov-14 00:30N 68°56' E 016°43'0 0.0
2017-Nov-13 23:58N 68°56' E 016°43'0 0.0
2017-Nov-13 23:28N 68°56' E 016°43'0 0.0
2017-Nov-13 22:58N 68°56' E 016°43'0 0.0
2017-Nov-13 22:28N 68°56' E 016°43'0 0.0
2017-Nov-13 21:58N 68°56' E 016°43'0 0.0
2017-Nov-13 02:00N 68°56' E 016°42'0 0.0
2017-Nov-13 01:30N 68°56' E 016°42'0 0.0
2017-Nov-13 01:00N 68°56' E 016°42'0 0.0
2017-Nov-13 00:30N 68°56' E 016°42'0 0.0
2017-Nov-13 00:00N 68°56' E 016°42'0 0.0
2017-Nov-12 23:30N 68°56' E 016°42'0 0.0
2017-Nov-12 23:00N 68°56' E 016°42'0 0.0
2017-Nov-12 22:30N 68°56' E 016°42'0 0.0
2017-Nov-12 21:58N 68°56' E 016°42'0 0.0
2017-Nov-12 21:23N 68°56' E 016°42'0 0.0
2017-Nov-12 20:59N 68°56' E 016°42'0 0.0
2017-Nov-12 20:29N 68°56' E 016°42'0 0.0
2017-Nov-12 19:58N 68°56' E 016°42'0 0.0
2017-Nov-12 19:29N 68°56' E 016°42'0 0.0
2017-Nov-12 18:58N 68°56' E 016°42'1 2.3
2017-Nov-12 18:30N 68°56' E 016°40'1 1.7
2017-Nov-12 18:00N 68°56' E 016°42'0 0.0
2017-Nov-12 17:29N 68°56' E 016°42'1 1.7
2017-Nov-12 17:00N 68°56' E 016°40'1 2.0
2017-Nov-12 16:30N 68°56' E 016°42'0 0.0
2017-Nov-12 15:58N 68°56' E 016°42'0 0.0
2017-Nov-12 15:26N 68°56' E 016°42'0 0.0
2017-Nov-12 14:59N 68°56' E 016°42'0 0.0
2017-Nov-12 14:29N 68°56' E 016°42'0 0.0
2017-Nov-12 13:59N 68°56' E 016°42'0 0.0
2017-Nov-12 13:28N 68°56' E 016°42'0 0.1
2017-Nov-12 12:59N 68°56' E 016°42'0 0.0
2017-Nov-12 12:29N 68°56' E 016°42'0 0.0
2017-Nov-12 11:59N 68°56' E 016°42'0 0.0
2017-Nov-12 11:26N 68°56' E 016°42'0 0.0
2017-Nov-12 10:59N 68°56' E 016°42'0 0.0
2017-Nov-12 10:29N 68°56' E 016°42'0 0.0
2017-Nov-12 09:59N 68°56' E 016°42'0 0.0
2017-Nov-12 09:29N 68°56' E 016°42'0 0.0
2017-Nov-12 08:59N 68°56' E 016°42'0 0.0
2017-Nov-12 08:29N 68°56' E 016°42'0 0.0
2017-Nov-12 07:59N 68°56' E 016°42'0 0.0
2017-Nov-12 07:29N 68°56' E 016°42'0 0.0
2017-Nov-12 06:59N 68°56' E 016°42'0 0.0
2017-Nov-12 06:28N 68°56' E 016°42'1 2.1
2017-Nov-12 05:57N 68°56' E 016°40'0 0.0
2017-Nov-12 05:29N 68°56' E 016°40'0 0.0
2017-Nov-12 04:59N 68°56' E 016°40'1 1.7
2017-Nov-12 04:28N 68°56' E 016°42'0 0.0
2017-Nov-12 03:58N 68°56' E 016°42'0 0.0
2017-Nov-12 03:28N 68°56' E 016°42'0 0.0
2017-Nov-12 02:58N 68°56' E 016°42'0 0.0
2017-Nov-12 02:28N 68°56' E 016°42'0 0.0
2017-Nov-12 01:58N 68°56' E 016°42'0 0.0
2017-Nov-12 01:28N 68°56' E 016°42'0 0.9
2017-Nov-12 01:00N 68°56' E 016°41'510.5
2017-Nov-12 00:30N 68°51' E 016°37'3 5.8
2017-Nov-12 00:00N 68°48' E 016°33'0 0.0
2017-Nov-11 23:30N 68°48' E 016°33'0 0.3
2017-Nov-11 23:00N 68°48' E 016°33'4 7.1
2017-Nov-11 22:30N 68°51' E 016°37'510.1
2017-Nov-11 22:00N 68°56' E 016°40'1 2.1
2017-Nov-11 21:30N 68°55' E 016°42'5 9.5
2017-Nov-11 21:00N 68°57' E 016°54'5 9.7
2017-Nov-11 20:30N 68°59' E 017°06'4 8.8
2017-Nov-11 20:00N 69°03' E 017°14'2 4.8
2017-Nov-11 19:30N 69°05' E 017°13'5 9.8
2017-Nov-11 19:00N 69°06' E 017°27'5 9.7
2017-Nov-11 18:30N 69°08' E 017°40'5 9.9
2017-Nov-11 18:00N 69°10' E 017°53'5 9.5
2017-Nov-11 17:30N 69°13' E 018°03'1 1.3
2017-Nov-11 16:59N 69°13' E 018°04'0 0.0
2017-Nov-11 16:28N 69°13' E 018°04'0 0.0
2017-Nov-11 15:58N 69°13' E 018°04'0 0.0
2017-Nov-11 15:30N 69°13' E 018°04'3 6.5
2017-Nov-11 15:00N 69°11' E 017°59'5 9.2
2017-Nov-11 14:30N 69°08' E 017°47'5 9.4
2017-Nov-11 14:00N 69°07' E 017°35'5 9.3
2017-Nov-11 13:30N 69°05' E 017°23'5 9.4
2017-Nov-11 13:01N 69°01' E 017°16'5 9.3
2017-Nov-11 12:30N 68°59' E 017°03'5 9.5
2017-Nov-11 12:00N 68°58' E 016°51'3 6.8
2017-Nov-11 11:30N 68°56' E 016°43'2 3.1
2017-Nov-11 11:00N 68°55' E 016°41'5 9.4
2017-Nov-11 10:30N 68°50' E 016°37'3 5.4
2017-Nov-11 10:00N 68°48' E 016°33'4 7.5
2017-Nov-11 09:30N 68°51' E 016°38'4 9.0
2017-Nov-11 09:00N 68°55' E 016°43'4 8.5
2017-Nov-11 08:30N 68°59' E 016°46'4 8.6
2017-Nov-11 08:00N 69°04' E 016°47'3 5.0
2017-Nov-11 07:30N 69°01' E 016°46'5 9.4
2017-Nov-11 07:00N 68°56' E 016°45'2 3.4
2017-Nov-11 06:29N 68°56' E 016°40'0 0.0
2017-Nov-11 05:59N 68°56' E 016°40'0 0.0
2017-Nov-11 05:29N 68°56' E 016°40'0 0.0
2017-Nov-11 04:59N 68°56' E 016°40'1 1.1
2017-Nov-11 04:30N 68°56' E 016°40'1 1.7
2017-Nov-11 03:59N 68°56' E 016°42'0 0.0
2017-Nov-11 03:30N 68°56' E 016°42'0 0.0
2017-Nov-11 03:00N 68°56' E 016°42'0 0.0
2017-Nov-11 02:30N 68°56' E 016°42'0 0.0
2017-Nov-11 02:00N 68°56' E 016°42'0 0.0
2017-Nov-11 01:28N 68°56' E 016°42'0 0.0
2017-Nov-11 00:58N 68°56' E 016°42'0 0.0
2017-Nov-11 00:29N 68°56' E 016°42'0 0.0
2017-Nov-10 23:59N 68°56' E 016°42'0 0.0
2017-Nov-10 23:29N 68°56' E 016°42'0 0.5
2017-Nov-10 23:00N 68°56' E 016°42'0 0.2
2017-Nov-10 22:28N 68°56' E 016°42'0 0.0
2017-Nov-10 22:00N 68°56' E 016°42'0 0.0
2017-Nov-10 21:29N 68°56' E 016°42'0 0.0
2017-Nov-10 20:58N 68°56' E 016°42'0 0.0
2017-Nov-10 20:28N 68°56' E 016°42'0 0.0
2017-Nov-10 19:57N 68°56' E 016°42'1 1.9
2017-Nov-10 19:30N 68°56' E 016°40'0 0.1
2017-Nov-10 18:59N 68°56' E 016°40'1 1.2
2017-Nov-10 18:30N 68°56' E 016°40'2 3.0
2017-Nov-10 18:00N 68°54' E 016°41'5 9.1
2017-Nov-10 17:30N 68°50' E 016°37'3 5.7
2017-Nov-10 17:00N 68°47' E 016°36'2 3.2
2017-Nov-10 16:30N 68°48' E 016°33'3 6.3
2017-Nov-10 16:00N 68°51' E 016°37'5 9.2
2017-Nov-10 15:30N 68°55' E 016°40'1 2.0
2017-Nov-10 14:58N 68°56' E 016°40'0 0.0
2017-Nov-10 14:30N 68°56' E 016°40'1 1.8
2017-Nov-10 14:00N 68°56' E 016°42'0 0.1
2017-Nov-10 13:30N 68°56' E 016°43'0 0.0
2017-Nov-10 13:00N 68°56' E 016°43'0 0.0
2017-Nov-10 12:30N 68°56' E 016°43'1 1.3
2017-Nov-10 12:00N 68°56' E 016°42'4 8.0
2017-Nov-10 11:30N 68°52' E 016°38'4 8.8
2017-Nov-10 11:00N 68°47' E 016°37'2 4.7
2017-Nov-10 10:30N 68°50' E 016°36'0 0.8
2017-Nov-10 09:59N 68°50' E 016°37'2 4.9
2017-Nov-10 09:29N 68°48' E 016°33'0 0.0
2017-Nov-10 09:00N 68°48' E 016°33'0 0.0
2017-Nov-10 08:30N 68°48' E 016°33'0 0.0
2017-Nov-10 08:00N 68°48' E 016°33'0 0.0
2017-Nov-10 07:30N 68°48' E 016°33'0 0.0
2017-Nov-10 06:59N 68°48' E 016°33'0 0.0
2017-Nov-10 06:28N 68°48' E 016°33'0 0.0
2017-Nov-10 05:59N 68°48' E 016°33'0 0.0
2017-Nov-10 05:29N 68°48' E 016°33'0 0.0
2017-Nov-10 04:59N 68°48' E 016°33'0 0.0
2017-Nov-10 04:28N 68°48' E 016°33'0 0.0
2017-Nov-10 03:58N 68°48' E 016°33'0 0.0
2017-Nov-10 03:28N 68°48' E 016°33'0 0.0
2017-Nov-10 02:58N 68°48' E 016°33'0 0.0
2017-Nov-10 02:28N 68°48' E 016°33'0 0.0
2017-Nov-10 02:00N 68°48' E 016°33'0 0.0
2017-Nov-10 01:30N 68°48' E 016°33'0 0.0
2017-Nov-10 01:00N 68°48' E 016°33'0 0.0
2017-Nov-10 00:30N 68°48' E 016°33'0 0.0
2017-Nov-09 23:59N 68°48' E 016°33'0 0.0
2017-Nov-09 23:29N 68°48' E 016°33'0 0.0
2017-Nov-09 22:58N 68°48' E 016°33'0 0.0
2017-Nov-09 22:29N 68°48' E 016°33'0 0.0
2017-Nov-09 21:59N 68°48' E 016°33'0 0.0
2017-Nov-09 21:29N 68°48' E 016°33'0 0.0
2017-Nov-09 20:57N 68°48' E 016°33'0 0.0
2017-Nov-09 20:30N 68°48' E 016°33'0 0.0
2017-Nov-09 20:00N 68°48' E 016°33'0 0.0
2017-Nov-09 19:30N 68°48' E 016°33'0 0.0
2017-Nov-09 19:00N 68°48' E 016°33'0 0.0
2017-Nov-09 18:29N 68°48' E 016°33'0 0.0
2017-Nov-09 18:00N 68°48' E 016°33'0 0.0
2017-Nov-09 17:28N 68°48' E 016°33'0 0.0
2017-Nov-09 16:58N 68°48' E 016°33'0 0.0
2017-Nov-09 16:28N 68°48' E 016°33'0 0.0
2017-Nov-09 15:58N 68°48' E 016°33'0 0.5
2017-Nov-09 15:30N 68°48' E 016°33'0 0.0
2017-Nov-09 14:59N 68°48' E 016°33'0 0.0
2017-Nov-09 14:29N 68°48' E 016°33'0 0.0
2017-Nov-09 13:59N 68°48' E 016°33'0 0.0
2017-Nov-09 13:28N 68°48' E 016°33'0 0.0
2017-Nov-09 12:58N 68°48' E 016°33'0 0.0
2017-Nov-09 12:28N 68°48' E 016°33'0 0.0
2017-Nov-09 11:58N 68°48' E 016°33'0 0.0
2017-Nov-09 11:28N 68°48' E 016°33'0 0.5
2017-Nov-09 10:58N 68°48' E 016°33'0 0.0
2017-Nov-09 10:26N 68°48' E 016°33'0 0.0
2017-Nov-09 09:59N 68°48' E 016°33'0 0.7
2017-Nov-09 09:30N 68°48' E 016°34'4 8.7
2017-Nov-09 09:00N 68°45' E 016°42'5 9.2
2017-Nov-09 08:30N 68°41' E 016°50'1 2.3
2017-Nov-09 08:00N 68°42' E 016°48'5 9.0
2017-Nov-09 07:29N 68°46' E 016°41'4 7.0
2017-Nov-09 06:59N 68°48' E 016°33'0 0.0
2017-Nov-09 06:28N 68°48' E 016°33'0 0.0
2017-Nov-09 05:59N 68°48' E 016°33'0 0.0
2017-Nov-09 05:28N 68°48' E 016°33'0 0.0
2017-Nov-09 04:58N 68°48' E 016°33'0 0.0
2017-Nov-09 04:28N 68°48' E 016°33'0 0.0
2017-Nov-09 03:58N 68°48' E 016°33'0 0.0
2017-Nov-09 03:30N 68°48' E 016°33'0 0.0
2017-Nov-09 02:58N 68°48' E 016°33'0 0.0
2017-Nov-09 02:29N 68°48' E 016°33'0 0.0
2017-Nov-09 01:59N 68°48' E 016°33'0 0.0
2017-Nov-09 01:29N 68°48' E 016°33'0 0.0
2017-Nov-09 00:59N 68°48' E 016°33'0 0.0
2017-Nov-09 00:24N 68°48' E 016°33'0 0.0
2017-Nov-08 23:59N 68°48' E 016°33'0 0.0
2017-Nov-08 23:29N 68°48' E 016°33'0 0.0
2017-Nov-08 22:59N 68°48' E 016°33'0 0.0
2017-Nov-08 22:29N 68°48' E 016°33'0 0.0
2017-Nov-08 21:59N 68°48' E 016°33'0 0.0
2017-Nov-08 21:29N 68°48' E 016°33'0 0.0
2017-Nov-08 20:59N 68°48' E 016°33'0 0.0
2017-Nov-08 20:28N 68°48' E 016°33'0 0.0
2017-Nov-08 19:58N 68°48' E 016°33'0 0.0
2017-Nov-08 19:27N 68°48' E 016°33'0 0.0
2017-Nov-08 19:00N 68°48' E 016°33'0 0.0
2017-Nov-08 18:28N 68°48' E 016°33'0 0.6
2017-Nov-08 18:00N 68°48' E 016°34'5 9.4
2017-Nov-08 17:30N 68°52' E 016°39'5 9.1
2017-Nov-08 17:00N 68°56' E 016°47'5 9.0
2017-Nov-08 16:30N 69°01' E 016°46'4 6.8
2017-Nov-08 15:59N 69°04' E 016°49'0 0.0
2017-Nov-08 15:29N 69°04' E 016°49'0 0.0
2017-Nov-08 14:58N 69°04' E 016°49'4 7.9
2017-Nov-08 14:29N 69°00' E 016°46'5 6.3
2017-Nov-08 13:44N 68°56' E 016°42'0 0.0
2017-Nov-08 13:29N 68°56' E 016°42'0 0.0
2017-Nov-08 12:35N 68°56' E 016°42'0 0.0
2017-Nov-08 12:29N 68°56' E 016°42'0 0.1
2017-Nov-08 11:47N 68°56' E 016°42'0 0.0
2017-Nov-08 09:05N 68°56' E 016°42'0 0.1
2017-Nov-08 08:59N 68°56' E 016°42'0 0.0
2017-Nov-08 08:28N 68°56' E 016°42'0 0.0
2017-Nov-08 07:58N 68°56' E 016°42'0 0.0
2017-Nov-08 07:25N 68°56' E 016°42'3 7.7
2017-Nov-08 07:00N 68°53' E 016°39'5 9.4
2017-Nov-08 06:30N 68°48' E 016°34'1 1.0
2017-Nov-08 05:59N 68°48' E 016°33'0 0.0
2017-Nov-08 05:29N 68°48' E 016°33'0 0.0
2017-Nov-08 04:59N 68°48' E 016°33'0 0.0
2017-Nov-08 04:29N 68°48' E 016°33'0 0.0
2017-Nov-08 03:59N 68°48' E 016°33'0 0.0
2017-Nov-08 03:30N 68°48' E 016°33'0 0.0
2017-Nov-08 02:58N 68°48' E 016°33'0 0.0
2017-Nov-08 02:28N 68°48' E 016°33'0 0.0
2017-Nov-08 01:58N 68°48' E 016°33'0 0.0
2017-Nov-08 01:28N 68°48' E 016°33'0 0.0
2017-Nov-08 00:58N 68°48' E 016°33'0 0.0
2017-Nov-08 00:25N 68°48' E 016°33'0 0.0
2017-Nov-07 22:39N 68°48' E 016°33'0 0.0
2017-Nov-07 22:30N 68°48' E 016°33'0 0.0
2017-Nov-07 22:00N 68°48' E 016°33'0 0.0
2017-Nov-07 21:30N 68°48' E 016°33'0 0.0
2017-Nov-07 21:00N 68°48' E 016°33'0 0.0
2017-Nov-07 20:29N 68°48' E 016°33'0 0.0
2017-Nov-07 20:00N 68°48' E 016°33'0 0.0
2017-Nov-07 19:30N 68°48' E 016°33'0 0.0
2017-Nov-07 18:57N 68°48' E 016°33'0 0.0
2017-Nov-07 18:29N 68°48' E 016°33'0 0.0
2017-Nov-07 17:58N 68°48' E 016°33'0 0.0
2017-Nov-07 17:28N 68°48' E 016°33'0 0.0
2017-Nov-07 16:58N 68°48' E 016°33'0 0.0
2017-Nov-07 16:28N 68°48' E 016°33'1 2.5
2017-Nov-07 16:00N 68°49' E 016°35'5 9.1
2017-Nov-07 15:30N 68°53' E 016°39'3 4.8
2017-Nov-07 14:59N 68°56' E 016°42'0 0.2
2017-Nov-07 14:28N 68°56' E 016°42'0 0.0
2017-Nov-07 13:58N 68°56' E 016°42'0 0.0
2017-Nov-07 13:28N 68°56' E 016°42'0 0.0
2017-Nov-07 13:00N 68°56' E 016°42'0 0.0
2017-Nov-07 12:30N 68°56' E 016°42'0 0.0
2017-Nov-07 12:00N 68°56' E 016°42'0 0.0
2017-Nov-07 11:29N 68°56' E 016°42'0 0.0
2017-Nov-07 10:59N 68°56' E 016°42'0 0.0
2017-Nov-07 10:26N 68°56' E 016°42'0 0.0
2017-Nov-07 10:00N 68°56' E 016°42'0 0.0
2017-Nov-07 09:30N 68°56' E 016°42'0 0.0
2017-Nov-07 09:00N 68°56' E 016°42'0 0.0
2017-Nov-07 08:30N 68°56' E 016°42'0 0.3
2017-Nov-07 08:00N 68°56' E 016°43'4 8.5
2017-Nov-07 07:30N 68°60' E 016°46'4 8.4
2017-Nov-07 07:00N 69°04' E 016°48'0 0.6
2017-Nov-07 06:30N 69°04' E 016°49'0 0.0
2017-Nov-07 06:00N 69°04' E 016°49'0 0.0
2017-Nov-07 05:30N 69°04' E 016°49'0 0.0
2017-Nov-07 05:00N 69°04' E 016°49'0 0.0
2017-Nov-07 04:30N 69°04' E 016°49'0 0.0
2017-Nov-07 04:00N 69°04' E 016°49'0 0.0
2017-Nov-07 03:30N 69°04' E 016°49'0 0.0
2017-Nov-07 03:00N 69°04' E 016°49'0 0.0
2017-Nov-07 02:28N 69°04' E 016°49'0 0.0
2017-Nov-07 01:58N 69°04' E 016°49'0 0.0
2017-Nov-07 01:30N 69°04' E 016°49'0 0.0
2017-Nov-07 00:58N 69°04' E 016°49'0 0.0
2017-Nov-07 00:28N 69°04' E 016°49'0 0.0
2017-Nov-06 23:58N 69°04' E 016°49'0 0.0
2017-Nov-06 23:28N 69°04' E 016°49'0 0.0
2017-Nov-06 22:58N 69°04' E 016°49'0 0.0
2017-Nov-06 22:28N 69°04' E 016°49'0 0.0
2017-Nov-06 21:58N 69°04' E 016°49'0 0.0
2017-Nov-06 21:28N 69°04' E 016°49'0 0.0
2017-Nov-06 20:58N 69°04' E 016°49'0 0.0
2017-Nov-06 20:28N 69°04' E 016°49'  
Track history (hours):
 
Tides and Currents Weather Stations Pressure Air Temp Water Temp Dewpoint Dewpoint Depression Visibility Wind Speed Wind Dir Waves Ship Positions

Gere

Last reported at 2017-Nov-16 09:03 UTC. Time now 2017-Dec-17 15:59 UTC.
Position N 68°56' E 016°42'.
Warning: this ship's position is 31 days out of date.

Length 15 m; draft 2.2 m.

Type: Wing in ground effect craft. MMSI: 257874500.

Date/timePositionNaut miles runAvg speedWind from/ knotsBaromVisibWave heightAir tempDewpointWater temp
2017-Nov-16 09:03N 68°56' E 016°42'0 0.0
2017-Nov-16 09:00N 68°56' E 016°42'0 0.0
2017-Nov-16 08:28N 68°56' E 016°42'0 0.0
2017-Nov-16 07:54N 68°56' E 016°42'0 0.0
2017-Nov-16 07:30N 68°56' E 016°42'0 0.0
2017-Nov-16 07:00N 68°56' E 016°42'0 0.0
2017-Nov-16 06:30N 68°56' E 016°42'0 0.6
2017-Nov-16 06:00N 68°56' E 016°41'1 1.5
2017-Nov-16 05:30N 68°56' E 016°40'0 0.0
2017-Nov-16 05:00N 68°56' E 016°40'1 1.6
2017-Nov-16 04:30N 68°56' E 016°42'0 0.4
2017-Nov-16 04:00N 68°56' E 016°42'0 0.7
2017-Nov-16 03:30N 68°56' E 016°41'1 1.7
2017-Nov-16 02:57N 68°56' E 016°40'0 0.0
2017-Nov-16 02:27N 68°56' E 016°40'0 0.0
2017-Nov-16 01:57N 68°56' E 016°40'0 0.0
2017-Nov-16 01:27N 68°56' E 016°40'1 1.8
2017-Nov-16 01:00N 68°56' E 016°40'1 1.3
2017-Nov-16 00:28N 68°56' E 016°42'0 0.0
2017-Nov-15 23:58N 68°56' E 016°42'0 0.0
2017-Nov-15 23:29N 68°56' E 016°42'0 0.0
2017-Nov-15 22:57N 68°56' E 016°42'0 0.0
2017-Nov-15 22:28N 68°56' E 016°42'0 0.0
2017-Nov-15 21:58N 68°56' E 016°42'0 0.0
2017-Nov-15 21:29N 68°56' E 016°42'1 2.1
2017-Nov-15 20:59N 68°56' E 016°40'0 0.1
2017-Nov-15 20:29N 68°56' E 016°40'0 0.0
2017-Nov-15 19:54N 68°56' E 016°40'0 0.0
2017-Nov-15 19:30N 68°56' E 016°40'0 0.0
2017-Nov-15 19:00N 68°56' E 016°40'0 0.0
2017-Nov-15 18:30N 68°56' E 016°40'0 0.0
2017-Nov-15 18:00N 68°56' E 016°40'0 0.1
2017-Nov-15 17:30N 68°56' E 016°40'2 3.7
2017-Nov-15 17:01N 68°55' E 016°41'1 1.3
2017-Nov-15 16:29N 68°55' E 016°42'0 0.7
2017-Nov-15 15:59N 68°56' E 016°42'0 0.4
2017-Nov-15 15:28N 68°56' E 016°43'1 3.2
2017-Nov-15 15:00N 68°57' E 016°46'4 8.1
2017-Nov-15 14:30N 69°01' E 016°46'3 6.5
2017-Nov-15 13:59N 69°04' E 016°49'2 4.9
2017-Nov-15 13:29N 69°02' E 016°46'5 9.5
2017-Nov-15 13:00N 68°57' E 016°46'2 4.1
2017-Nov-15 12:30N 68°56' E 016°42'0 0.0
2017-Nov-15 12:00N 68°56' E 016°42'0 0.0
2017-Nov-15 11:30N 68°56' E 016°42'0 0.1
2017-Nov-15 10:59N 68°56' E 016°42'0 0.0
2017-Nov-15 10:30N 68°56' E 016°42'0 0.0
2017-Nov-15 10:00N 68°56' E 016°42'0 0.0
2017-Nov-15 09:30N 68°56' E 016°42'0 0.0
2017-Nov-15 08:59N 68°56' E 016°42'0 0.0
2017-Nov-15 08:30N 68°56' E 016°42'0 0.1
2017-Nov-15 07:53N 68°56' E 016°42'0 0.0
2017-Nov-15 07:20N 68°56' E 016°42'0 0.1
2017-Nov-15 06:59N 68°56' E 016°42'0 0.0
2017-Nov-15 06:29N 68°56' E 016°42'0 0.1
2017-Nov-15 05:59N 68°56' E 016°42'0 0.0
2017-Nov-15 05:29N 68°56' E 016°42'0 0.0
2017-Nov-15 04:59N 68°56' E 016°42'0 0.0
2017-Nov-15 04:29N 68°56' E 016°42'1 2.3
2017-Nov-15 04:00N 68°56' E 016°40'0 0.0
2017-Nov-15 03:28N 68°56' E 016°40'0 0.0
2017-Nov-15 02:58N 68°56' E 016°40'0 0.0
2017-Nov-15 02:30N 68°56' E 016°40'0 0.0
2017-Nov-15 01:58N 68°56' E 016°40'0 0.0
2017-Nov-15 01:30N 68°56' E 016°40'0 0.0
2017-Nov-15 00:59N 68°56' E 016°40'0 0.0
2017-Nov-15 00:29N 68°56' E 016°40'0 0.0
2017-Nov-14 23:59N 68°56' E 016°40'3 6.3
2017-Nov-14 23:30N 68°59' E 016°37'2 3.5
2017-Nov-14 23:00N 68°60' E 016°32'0 0.0
2017-Nov-14 22:30N 68°60' E 016°32'0 0.0
2017-Nov-14 22:00N 68°60' E 016°32'0 0.0
2017-Nov-14 21:30N 68°60' E 016°32'0 0.2
2017-Nov-14 21:00N 69°00' E 016°32'4 7.7
2017-Nov-14 20:30N 68°57' E 016°38'2 4.9
2017-Nov-14 20:00N 68°55' E 016°41'2 3.3
2017-Nov-14 19:28N 68°56' E 016°40'0 0.0
2017-Nov-14 18:58N 68°56' E 016°40'0 0.0
2017-Nov-14 18:30N 68°56' E 016°40'0 0.0
2017-Nov-14 18:00N 68°56' E 016°40'2 3.7
2017-Nov-14 17:30N 68°55' E 016°41'0 0.1
2017-Nov-14 16:58N 68°55' E 016°41'1 2.2
2017-Nov-14 16:30N 68°56' E 016°42'0 0.0
2017-Nov-14 16:00N 68°56' E 016°42'0 0.0
2017-Nov-14 15:30N 68°56' E 016°42'0 0.0
2017-Nov-14 15:00N 68°56' E 016°42'0 0.0
2017-Nov-14 14:30N 68°56' E 016°42'0 0.0
2017-Nov-14 14:00N 68°56' E 016°42'0 0.0
2017-Nov-14 13:30N 68°56' E 016°42'0 0.0
2017-Nov-14 13:00N 68°56' E 016°42'0 0.0
2017-Nov-14 12:30N 68°56' E 016°42'0 0.0
2017-Nov-14 11:58N 68°56' E 016°42'0 0.0
2017-Nov-14 11:28N 68°56' E 016°42'0 0.0
2017-Nov-14 10:58N 68°56' E 016°42'0 0.0
2017-Nov-14 10:28N 68°56' E 016°42'0 0.0
2017-Nov-14 09:58N 68°56' E 016°42'0 0.0
2017-Nov-14 09:30N 68°56' E 016°42'0 0.0
2017-Nov-14 08:57N 68°56' E 016°42'0 0.0
2017-Nov-14 08:29N 68°56' E 016°42'0 0.0
2017-Nov-14 07:58N 68°56' E 016°42'0 0.0
2017-Nov-14 07:28N 68°56' E 016°42'0 0.0
2017-Nov-14 06:58N 68°56' E 016°42'0 0.0
2017-Nov-14 06:27N 68°56' E 016°42'1 2.1
2017-Nov-14 05:57N 68°56' E 016°40'0 0.0
2017-Nov-14 05:29N 68°56' E 016°40'0 0.1
2017-Nov-14 04:59N 68°56' E 016°40'1 1.2
2017-Nov-14 04:30N 68°56' E 016°40'1 1.7
2017-Nov-14 03:59N 68°56' E 016°42'0 0.0
2017-Nov-14 03:29N 68°56' E 016°42'0 0.0
2017-Nov-14 02:59N 68°56' E 016°42'0 0.9
2017-Nov-14 02:28N 68°56' E 016°43'0 0.0
2017-Nov-14 01:59N 68°56' E 016°43'0 0.0
2017-Nov-14 01:30N 68°56' E 016°43'0 0.0
2017-Nov-14 01:00N 68°56' E 016°43'0 0.0
2017-Nov-14 00:30N 68°56' E 016°43'0 0.0
2017-Nov-13 23:58N 68°56' E 016°43'0 0.0
2017-Nov-13 23:28N 68°56' E 016°43'0 0.0
2017-Nov-13 22:58N 68°56' E 016°43'0 0.0
2017-Nov-13 22:28N 68°56' E 016°43'0 0.0
2017-Nov-13 21:58N 68°56' E 016°43'0 0.0
2017-Nov-13 02:00N 68°56' E 016°42'0 0.0
2017-Nov-13 01:30N 68°56' E 016°42'0 0.0
2017-Nov-13 01:00N 68°56' E 016°42'0 0.0
2017-Nov-13 00:30N 68°56' E 016°42'0 0.0
2017-Nov-13 00:00N 68°56' E 016°42'0 0.0
2017-Nov-12 23:30N 68°56' E 016°42'0 0.0
2017-Nov-12 23:00N 68°56' E 016°42'0 0.0
2017-Nov-12 22:30N 68°56' E 016°42'0 0.0
2017-Nov-12 21:58N 68°56' E 016°42'0 0.0
2017-Nov-12 21:23N 68°56' E 016°42'0 0.0
2017-Nov-12 20:59N 68°56' E 016°42'0 0.0
2017-Nov-12 20:29N 68°56' E 016°42'0 0.0
2017-Nov-12 19:58N 68°56' E 016°42'0 0.0
2017-Nov-12 19:29N 68°56' E 016°42'0 0.0
2017-Nov-12 18:58N 68°56' E 016°42'1 2.3
2017-Nov-12 18:30N 68°56' E 016°40'1 1.7
2017-Nov-12 18:00N 68°56' E 016°42'0 0.0
2017-Nov-12 17:29N 68°56' E 016°42'1 1.7
2017-Nov-12 17:00N 68°56' E 016°40'1 2.0
2017-Nov-12 16:30N 68°56' E 016°42'0 0.0
2017-Nov-12 15:58N 68°56' E 016°42'0 0.0
2017-Nov-12 15:26N 68°56' E 016°42'0 0.0
2017-Nov-12 14:59N 68°56' E 016°42'0 0.0
2017-Nov-12 14:29N 68°56' E 016°42'0 0.0
2017-Nov-12 13:59N 68°56' E 016°42'0 0.0
2017-Nov-12 13:28N 68°56' E 016°42'0 0.1
2017-Nov-12 12:59N 68°56' E 016°42'0 0.0
2017-Nov-12 12:29N 68°56' E 016°42'0 0.0
2017-Nov-12 11:59N 68°56' E 016°42'0 0.0
2017-Nov-12 11:26N 68°56' E 016°42'0 0.0
2017-Nov-12 10:59N 68°56' E 016°42'0 0.0
2017-Nov-12 10:29N 68°56' E 016°42'0 0.0
2017-Nov-12 09:59N 68°56' E 016°42'0 0.0
2017-Nov-12 09:29N 68°56' E 016°42'0 0.0
2017-Nov-12 08:59N 68°56' E 016°42'0 0.0
2017-Nov-12 08:29N 68°56' E 016°42'0 0.0
2017-Nov-12 07:59N 68°56' E 016°42'0 0.0
2017-Nov-12 07:29N 68°56' E 016°42'0 0.0
2017-Nov-12 06:59N 68°56' E 016°42'0 0.0
2017-Nov-12 06:28N 68°56' E 016°42'1 2.1
2017-Nov-12 05:57N 68°56' E 016°40'0 0.0
2017-Nov-12 05:29N 68°56' E 016°40'0 0.0
2017-Nov-12 04:59N 68°56' E 016°40'1 1.7
2017-Nov-12 04:28N 68°56' E 016°42'0 0.0
2017-Nov-12 03:58N 68°56' E 016°42'0 0.0
2017-Nov-12 03:28N 68°56' E 016°42'0 0.0
2017-Nov-12 02:58N 68°56' E 016°42'0 0.0
2017-Nov-12 02:28N 68°56' E 016°42'0 0.0
2017-Nov-12 01:58N 68°56' E 016°42'0 0.0
2017-Nov-12 01:28N 68°56' E 016°42'0 0.9
2017-Nov-12 01:00N 68°56' E 016°41'510.5
2017-Nov-12 00:30N 68°51' E 016°37'3 5.8
2017-Nov-12 00:00N 68°48' E 016°33'0 0.0
2017-Nov-11 23:30N 68°48' E 016°33'0 0.3
2017-Nov-11 23:00N 68°48' E 016°33'4 7.1
2017-Nov-11 22:30N 68°51' E 016°37'510.1
2017-Nov-11 22:00N 68°56' E 016°40'1 2.1
2017-Nov-11 21:30N 68°55' E 016°42'5 9.5
2017-Nov-11 21:00N 68°57' E 016°54'5 9.7
2017-Nov-11 20:30N 68°59' E 017°06'4 8.8
2017-Nov-11 20:00N 69°03' E 017°14'2 4.8
2017-Nov-11 19:30N 69°05' E 017°13'5 9.8
2017-Nov-11 19:00N 69°06' E 017°27'5 9.7
2017-Nov-11 18:30N 69°08' E 017°40'5 9.9
2017-Nov-11 18:00N 69°10' E 017°53'5 9.5
2017-Nov-11 17:30N 69°13' E 018°03'1 1.3
2017-Nov-11 16:59N 69°13' E 018°04'0 0.0
2017-Nov-11 16:28N 69°13' E 018°04'0 0.0
2017-Nov-11 15:58N 69°13' E 018°04'0 0.0
2017-Nov-11 15:30N 69°13' E 018°04'3 6.5
2017-Nov-11 15:00N 69°11' E 017°59'5 9.2
2017-Nov-11 14:30N 69°08' E 017°47'5 9.4
2017-Nov-11 14:00N 69°07' E 017°35'5 9.3
2017-Nov-11 13:30N 69°05' E 017°23'5 9.4
2017-Nov-11 13:01N 69°01' E 017°16'5 9.3
2017-Nov-11 12:30N 68°59' E 017°03'5 9.5
2017-Nov-11 12:00N 68°58' E 016°51'3 6.8
2017-Nov-11 11:30N 68°56' E 016°43'2 3.1
2017-Nov-11 11:00N 68°55' E 016°41'5 9.4
2017-Nov-11 10:30N 68°50' E 016°37'3 5.4
2017-Nov-11 10:00N 68°48' E 016°33'4 7.5
2017-Nov-11 09:30N 68°51' E 016°38'4 9.0
2017-Nov-11 09:00N 68°55' E 016°43'4 8.5
2017-Nov-11 08:30N 68°59' E 016°46'4 8.6
2017-Nov-11 08:00N 69°04' E 016°47'3 5.0
2017-Nov-11 07:30N 69°01' E 016°46'5 9.4
2017-Nov-11 07:00N 68°56' E 016°45'2 3.4
2017-Nov-11 06:29N 68°56' E 016°40'0 0.0
2017-Nov-11 05:59N 68°56' E 016°40'0 0.0
2017-Nov-11 05:29N 68°56' E 016°40'0 0.0
2017-Nov-11 04:59N 68°56' E 016°40'1 1.1
2017-Nov-11 04:30N 68°56' E 016°40'1 1.7
2017-Nov-11 03:59N 68°56' E 016°42'0 0.0
2017-Nov-11 03:30N 68°56' E 016°42'0 0.0
2017-Nov-11 03:00N 68°56' E 016°42'0 0.0
2017-Nov-11 02:30N 68°56' E 016°42'0 0.0
2017-Nov-11 02:00N 68°56' E 016°42'0 0.0
2017-Nov-11 01:28N 68°56' E 016°42'0 0.0
2017-Nov-11 00:58N 68°56' E 016°42'0 0.0
2017-Nov-11 00:29N 68°56' E 016°42'0 0.0
2017-Nov-10 23:59N 68°56' E 016°42'0 0.0
2017-Nov-10 23:29N 68°56' E 016°42'0 0.5
2017-Nov-10 23:00N 68°56' E 016°42'0 0.2
2017-Nov-10 22:28N 68°56' E 016°42'0 0.0
2017-Nov-10 22:00N 68°56' E 016°42'0 0.0
2017-Nov-10 21:29N 68°56' E 016°42'0 0.0
2017-Nov-10 20:58N 68°56' E 016°42'0 0.0
2017-Nov-10 20:28N 68°56' E 016°42'0 0.0
2017-Nov-10 19:57N 68°56' E 016°42'1 1.9
2017-Nov-10 19:30N 68°56' E 016°40'0 0.1
2017-Nov-10 18:59N 68°56' E 016°40'1 1.2
2017-Nov-10 18:30N 68°56' E 016°40'2 3.0
2017-Nov-10 18:00N 68°54' E 016°41'5 9.1
2017-Nov-10 17:30N 68°50' E 016°37'3 5.7
2017-Nov-10 17:00N 68°47' E 016°36'2 3.2
2017-Nov-10 16:30N 68°48' E 016°33'3 6.3
2017-Nov-10 16:00N 68°51' E 016°37'5 9.2
2017-Nov-10 15:30N 68°55' E 016°40'1 2.0
2017-Nov-10 14:58N 68°56' E 016°40'0 0.0
2017-Nov-10 14:30N 68°56' E 016°40'1 1.8
2017-Nov-10 14:00N 68°56' E 016°42'0 0.1
2017-Nov-10 13:30N 68°56' E 016°43'0 0.0
2017-Nov-10 13:00N 68°56' E 016°43'0 0.0
2017-Nov-10 12:30N 68°56' E 016°43'1 1.3
2017-Nov-10 12:00N 68°56' E 016°42'4 8.0
2017-Nov-10 11:30N 68°52' E 016°38'4 8.8
2017-Nov-10 11:00N 68°47' E 016°37'2 4.7
2017-Nov-10 10:30N 68°50' E 016°36'0 0.8
2017-Nov-10 09:59N 68°50' E 016°37'2 4.9
2017-Nov-10 09:29N 68°48' E 016°33'0 0.0
2017-Nov-10 09:00N 68°48' E 016°33'0 0.0
2017-Nov-10 08:30N 68°48' E 016°33'0 0.0
2017-Nov-10 08:00N 68°48' E 016°33'0 0.0
2017-Nov-10 07:30N 68°48' E 016°33'0 0.0
2017-Nov-10 06:59N 68°48' E 016°33'0 0.0
2017-Nov-10 06:28N 68°48' E 016°33'0 0.0
2017-Nov-10 05:59N 68°48' E 016°33'0 0.0
2017-Nov-10 05:29N 68°48' E 016°33'0 0.0
2017-Nov-10 04:59N 68°48' E 016°33'0 0.0
2017-Nov-10 04:28N 68°48' E 016°33'0 0.0
2017-Nov-10 03:58N 68°48' E 016°33'0 0.0
2017-Nov-10 03:28N 68°48' E 016°33'0 0.0
2017-Nov-10 02:58N 68°48' E 016°33'0 0.0
2017-Nov-10 02:28N 68°48' E 016°33'0 0.0
2017-Nov-10 02:00N 68°48' E 016°33'0 0.0
2017-Nov-10 01:30N 68°48' E 016°33'0 0.0
2017-Nov-10 01:00N 68°48' E 016°33'0 0.0
2017-Nov-10 00:30N 68°48' E 016°33'0 0.0
2017-Nov-09 23:59N 68°48' E 016°33'0 0.0
2017-Nov-09 23:29N 68°48' E 016°33'0 0.0
2017-Nov-09 22:58N 68°48' E 016°33'0 0.0
2017-Nov-09 22:29N 68°48' E 016°33'0 0.0
2017-Nov-09 21:59N 68°48' E 016°33'0 0.0
2017-Nov-09 21:29N 68°48' E 016°33'0 0.0
2017-Nov-09 20:57N 68°48' E 016°33'0 0.0
2017-Nov-09 20:30N 68°48' E 016°33'0 0.0
2017-Nov-09 20:00N 68°48' E 016°33'0 0.0
2017-Nov-09 19:30N 68°48' E 016°33'0 0.0
2017-Nov-09 19:00N 68°48' E 016°33'0 0.0
2017-Nov-09 18:29N 68°48' E 016°33'0 0.0
2017-Nov-09 18:00N 68°48' E 016°33'0 0.0
2017-Nov-09 17:28N 68°48' E 016°33'0 0.0
2017-Nov-09 16:58N 68°48' E 016°33'0 0.0
2017-Nov-09 16:28N 68°48' E 016°33'0 0.0
2017-Nov-09 15:58N 68°48' E 016°33'0 0.5
2017-Nov-09 15:30N 68°48' E 016°33'0 0.0
2017-Nov-09 14:59N 68°48' E 016°33'0 0.0
2017-Nov-09 14:29N 68°48' E 016°33'0 0.0
2017-Nov-09 13:59N 68°48' E 016°33'0 0.0
2017-Nov-09 13:28N 68°48' E 016°33'0 0.0
2017-Nov-09 12:58N 68°48' E 016°33'0 0.0
2017-Nov-09 12:28N 68°48' E 016°33'0 0.0
2017-Nov-09 11:58N 68°48' E 016°33'0 0.0
2017-Nov-09 11:28N 68°48' E 016°33'0 0.5
2017-Nov-09 10:58N 68°48' E 016°33'0 0.0
2017-Nov-09 10:26N 68°48' E 016°33'0 0.0
2017-Nov-09 09:59N 68°48' E 016°33'0 0.7
2017-Nov-09 09:30N 68°48' E 016°34'4 8.7
2017-Nov-09 09:00N 68°45' E 016°42'5 9.2
2017-Nov-09 08:30N 68°41' E 016°50'1 2.3
2017-Nov-09 08:00N 68°42' E 016°48'5 9.0
2017-Nov-09 07:29N 68°46' E 016°41'4 7.0
2017-Nov-09 06:59N 68°48' E 016°33'0 0.0
2017-Nov-09 06:28N 68°48' E 016°33'0 0.0
2017-Nov-09 05:59N 68°48' E 016°33'0 0.0
2017-Nov-09 05:28N 68°48' E 016°33'0 0.0
2017-Nov-09 04:58N 68°48' E 016°33'0 0.0
2017-Nov-09 04:28N 68°48' E 016°33'0 0.0
2017-Nov-09 03:58N 68°48' E 016°33'0 0.0
2017-Nov-09 03:30N 68°48' E 016°33'0 0.0
2017-Nov-09 02:58N 68°48' E 016°33'0 0.0
2017-Nov-09 02:29N 68°48' E 016°33'0 0.0
2017-Nov-09 01:59N 68°48' E 016°33'0 0.0
2017-Nov-09 01:29N 68°48' E 016°33'0 0.0
2017-Nov-09 00:59N 68°48' E 016°33'0 0.0
2017-Nov-09 00:24N 68°48' E 016°33'0 0.0
2017-Nov-08 23:59N 68°48' E 016°33'0 0.0
2017-Nov-08 23:29N 68°48' E 016°33'0 0.0
2017-Nov-08 22:59N 68°48' E 016°33'0 0.0
2017-Nov-08 22:29N 68°48' E 016°33'0 0.0
2017-Nov-08 21:59N 68°48' E 016°33'0 0.0
2017-Nov-08 21:29N 68°48' E 016°33'0 0.0
2017-Nov-08 20:59N 68°48' E 016°33'0 0.0
2017-Nov-08 20:28N 68°48' E 016°33'0 0.0
2017-Nov-08 19:58N 68°48' E 016°33'0 0.0
2017-Nov-08 19:27N 68°48' E 016°33'0 0.0
2017-Nov-08 19:00N 68°48' E 016°33'0 0.0
2017-Nov-08 18:28N 68°48' E 016°33'0 0.6
2017-Nov-08 18:00N 68°48' E 016°34'5 9.4
2017-Nov-08 17:30N 68°52' E 016°39'5 9.1
2017-Nov-08 17:00N 68°56' E 016°47'5 9.0
2017-Nov-08 16:30N 69°01' E 016°46'4 6.8
2017-Nov-08 15:59N 69°04' E 016°49'0 0.0
2017-Nov-08 15:29N 69°04' E 016°49'0 0.0
2017-Nov-08 14:58N 69°04' E 016°49'4 7.9
2017-Nov-08 14:29N 69°00' E 016°46'5 6.3
2017-Nov-08 13:44N 68°56' E 016°42'0 0.0
2017-Nov-08 13:29N 68°56' E 016°42'0 0.0
2017-Nov-08 12:35N 68°56' E 016°42'0 0.0
2017-Nov-08 12:29N 68°56' E 016°42'0 0.1
2017-Nov-08 11:47N 68°56' E 016°42'0 0.0
2017-Nov-08 09:05N 68°56' E 016°42'0 0.1
2017-Nov-08 08:59N 68°56' E 016°42'0 0.0
2017-Nov-08 08:28N 68°56' E 016°42'0 0.0
2017-Nov-08 07:58N 68°56' E 016°42'0 0.0
2017-Nov-08 07:25N 68°56' E 016°42'3 7.7
2017-Nov-08 07:00N 68°53' E 016°39'5 9.4
2017-Nov-08 06:30N 68°48' E 016°34'1 1.0
2017-Nov-08 05:59N 68°48' E 016°33'0 0.0
2017-Nov-08 05:29N 68°48' E 016°33'0 0.0
2017-Nov-08 04:59N 68°48' E 016°33'0 0.0
2017-Nov-08 04:29N 68°48' E 016°33'0 0.0
2017-Nov-08 03:59N 68°48' E 016°33'0 0.0
2017-Nov-08 03:30N 68°48' E 016°33'0 0.0
2017-Nov-08 02:58N 68°48' E 016°33'0 0.0
2017-Nov-08 02:28N 68°48' E 016°33'0 0.0
2017-Nov-08 01:58N 68°48' E 016°33'0 0.0
2017-Nov-08 01:28N 68°48' E 016°33'0 0.0
2017-Nov-08 00:58N 68°48' E 016°33'0 0.0
2017-Nov-08 00:25N 68°48' E 016°33'0 0.0
2017-Nov-07 22:39N 68°48' E 016°33'0 0.0
2017-Nov-07 22:30N 68°48' E 016°33'0 0.0
2017-Nov-07 22:00N 68°48' E 016°33'0 0.0
2017-Nov-07 21:30N 68°48' E 016°33'0 0.0
2017-Nov-07 21:00N 68°48' E 016°33'0 0.0
2017-Nov-07 20:29N 68°48' E 016°33'0 0.0
2017-Nov-07 20:00N 68°48' E 016°33'0 0.0
2017-Nov-07 19:30N 68°48' E 016°33'0 0.0
2017-Nov-07 18:57N 68°48' E 016°33'0 0.0
2017-Nov-07 18:29N 68°48' E 016°33'0 0.0
2017-Nov-07 17:58N 68°48' E 016°33'0 0.0
2017-Nov-07 17:28N 68°48' E 016°33'0 0.0
2017-Nov-07 16:58N 68°48' E 016°33'0 0.0
2017-Nov-07 16:28N 68°48' E 016°33'1 2.5
2017-Nov-07 16:00N 68°49' E 016°35'5 9.1
2017-Nov-07 15:30N 68°53' E 016°39'3 4.8
2017-Nov-07 14:59N 68°56' E 016°42'0 0.2
2017-Nov-07 14:28N 68°56' E 016°42'0 0.0
2017-Nov-07 13:58N 68°56' E 016°42'0 0.0
2017-Nov-07 13:28N 68°56' E 016°42'0 0.0
2017-Nov-07 13:00N 68°56' E 016°42'0 0.0
2017-Nov-07 12:30N 68°56' E 016°42'0 0.0
2017-Nov-07 12:00N 68°56' E 016°42'0 0.0
2017-Nov-07 11:29N 68°56' E 016°42'0 0.0
2017-Nov-07 10:59N 68°56' E 016°42'0 0.0
2017-Nov-07 10:26N 68°56' E 016°42'0 0.0
2017-Nov-07 10:00N 68°56' E 016°42'0 0.0
2017-Nov-07 09:30N 68°56' E 016°42'0 0.0
2017-Nov-07 09:00N 68°56' E 016°42'0 0.0
2017-Nov-07 08:30N 68°56' E 016°42'0 0.3
2017-Nov-07 08:00N 68°56' E 016°43'4 8.5
2017-Nov-07 07:30N 68°60' E 016°46'4 8.4
2017-Nov-07 07:00N 69°04' E 016°48'0 0.6
2017-Nov-07 06:30N 69°04' E 016°49'0 0.0
2017-Nov-07 06:00N 69°04' E 016°49'0 0.0
2017-Nov-07 05:30N 69°04' E 016°49'0 0.0
2017-Nov-07 05:00N 69°04' E 016°49'0 0.0
2017-Nov-07 04:30N 69°04' E 016°49'0 0.0
2017-Nov-07 04:00N 69°04' E 016°49'0 0.0
2017-Nov-07 03:30N 69°04' E 016°49'0 0.0
2017-Nov-07 03:00N 69°04' E 016°49'0 0.0
2017-Nov-07 02:28N 69°04' E 016°49'0 0.0
2017-Nov-07 01:58N 69°04' E 016°49'0 0.0
2017-Nov-07 01:30N 69°04' E 016°49'0 0.0
2017-Nov-07 00:58N 69°04' E 016°49'0 0.0
2017-Nov-07 00:28N 69°04' E 016°49'0 0.0
2017-Nov-06 23:58N 69°04' E 016°49'0 0.0
2017-Nov-06 23:28N 69°04' E 016°49'0 0.0
2017-Nov-06 22:58N 69°04' E 016°49'0 0.0
2017-Nov-06 22:28N 69°04' E 016°49'0 0.0
2017-Nov-06 21:58N 69°04' E 016°49'0 0.0
2017-Nov-06 21:28N 69°04' E 016°49'0 0.0
2017-Nov-06 20:58N 69°04' E 016°49'0 0.0
2017-Nov-06 20:28N 69°04' E 016°49'  

Dump ship's entire track history